createdAt,value
2023-05-19T00:00:19.965Z,23.56
2023-05-19T00:01:19.981Z,23.57
2023-05-19T00:02:20.033Z,23.44
2023-05-19T00:03:20.160Z,23.39
2023-05-19T00:04:20.363Z,23.56
2023-05-19T00:05:20.260Z,23.49
2023-05-19T00:06:20.177Z,23.45
2023-05-19T00:07:20.148Z,23.49
2023-05-19T00:09:20.205Z,23.42
2023-05-19T00:10:20.238Z,23.45
2023-05-19T00:12:20.593Z,23.49
2023-05-19T00:14:20.350Z,23.41
2023-05-19T00:15:20.410Z,23.44
2023-05-19T00:16:20.461Z,23.44
2023-05-19T00:17:20.437Z,23.45
2023-05-19T00:18:20.600Z,23.42
2023-05-19T00:19:21.037Z,23.44
2023-05-19T00:20:20.541Z,23.39
2023-05-19T00:21:20.547Z,23.37
2023-05-19T00:23:20.609Z,23.38
2023-05-19T00:24:20.640Z,23.35
2023-05-19T00:25:20.694Z,23.32
2023-05-19T00:26:20.988Z,23.32
2023-05-19T00:27:20.730Z,23.31
2023-05-19T00:28:20.849Z,23.37
2023-05-19T00:29:20.885Z,23.32
2023-05-19T00:30:20.811Z,23.31
2023-05-19T00:31:20.879Z,23.34
2023-05-19T00:33:20.946Z,23.31
2023-05-19T00:34:21.189Z,23.35
2023-05-19T00:35:20.981Z,23.34
2023-05-19T00:36:20.985Z,23.35
2023-05-19T00:37:21.018Z,23.32
2023-05-19T00:38:21.036Z,23.26
2023-05-19T00:39:21.072Z,23.22
2023-05-19T00:40:21.105Z,23.22
2023-05-19T00:41:21.422Z,23.25
2023-05-19T00:42:21.154Z,23.23
2023-05-19T00:43:21.219Z,23.26
2023-05-19T00:44:21.208Z,23.23
2023-05-19T00:45:21.246Z,23.25
2023-05-19T00:46:21.300Z,23.23
2023-05-19T00:48:21.431Z,23.22
2023-05-19T00:50:21.706Z,23.21
2023-05-19T00:51:21.470Z,23.15
2023-05-19T00:52:21.440Z,23.21
2023-05-19T00:54:21.504Z,23.22
2023-05-19T00:55:21.529Z,23.21
2023-05-19T00:56:21.897Z,23.15
2023-05-19T00:58:21.625Z,23.14
2023-05-19T01:00:21.664Z,23.07
2023-05-19T01:01:22.015Z,23.09
2023-05-19T01:02:22.076Z,23.06
2023-05-19T01:03:21.776Z,23.15
2023-05-19T01:04:21.783Z,23.11
2023-05-19T01:05:21.803Z,23.06
2023-05-19T01:06:21.834Z,23.12
2023-05-19T01:07:21.889Z,23.09
2023-05-19T01:08:21.894Z,23.01
2023-05-19T01:09:22.261Z,23.09
2023-05-19T01:11:21.994Z,23.07
2023-05-19T01:12:22.012Z,23.01
2023-05-19T01:13:22.042Z,23.11
2023-05-19T01:14:22.079Z,23.11
2023-05-19T01:15:22.213Z,23.06
2023-05-19T01:16:22.504Z,22.96
2023-05-19T01:18:22.283Z,23.07
2023-05-19T01:19:22.243Z,23.03
2023-05-19T01:20:22.255Z,23.00
2023-05-19T01:21:22.269Z,23.04
2023-05-19T01:22:22.299Z,23.01
2023-05-19T01:23:22.651Z,22.93
2023-05-19T01:24:22.356Z,23.00
2023-05-19T01:26:22.415Z,23.03
2023-05-19T01:27:22.432Z,23.00
2023-05-19T01:29:22.506Z,22.96
2023-05-19T01:30:22.766Z,22.97
2023-05-19T01:31:22.583Z,22.94
2023-05-19T01:32:22.622Z,22.97
2023-05-19T01:34:22.638Z,23.03
2023-05-19T01:36:22.687Z,23.03
2023-05-19T01:37:23.018Z,22.84
2023-05-19T01:39:22.799Z,22.89
2023-05-19T01:40:22.818Z,22.85
2023-05-19T01:41:22.842Z,22.93
2023-05-19T01:42:22.862Z,22.97
2023-05-19T01:43:22.888Z,22.86
2023-05-19T01:44:23.220Z,22.88
2023-05-19T01:45:23.049Z,22.79
2023-05-19T01:46:23.062Z,22.84
2023-05-19T01:47:23.005Z,22.84
2023-05-19T01:48:23.049Z,22.91
2023-05-19T01:49:23.068Z,22.85
2023-05-19T01:50:23.131Z,22.84
2023-05-19T01:51:23.575Z,22.91
2023-05-19T01:52:23.153Z,22.86
2023-05-19T01:53:23.185Z,22.84
2023-05-19T01:54:23.208Z,22.81
2023-05-19T01:55:23.301Z,22.78
2023-05-19T01:56:23.262Z,22.78
2023-05-19T01:57:23.345Z,22.81
2023-05-19T01:58:23.623Z,22.81
2023-05-19T01:59:23.558Z,22.78
2023-05-19T02:00:23.468Z,22.78
2023-05-19T02:01:23.483Z,22.74
2023-05-19T02:03:23.484Z,22.76
2023-05-19T02:04:23.561Z,22.76
2023-05-19T02:05:23.768Z,22.70
2023-05-19T02:06:23.583Z,22.72
2023-05-19T02:07:23.583Z,22.82
2023-05-19T02:08:23.615Z,22.74
2023-05-19T02:09:23.630Z,22.66
2023-05-19T02:10:23.656Z,22.74
2023-05-19T02:11:23.713Z,22.75
2023-05-19T02:12:23.971Z,22.64
2023-05-19T02:13:23.744Z,22.72
2023-05-19T02:14:23.770Z,22.75
2023-05-19T02:15:23.801Z,22.64
2023-05-19T02:16:23.842Z,22.63
2023-05-19T02:17:23.929Z,22.78
2023-05-19T02:18:23.879Z,22.76
2023-05-19T02:19:24.422Z,22.75
2023-05-19T02:20:23.934Z,22.75
2023-05-19T02:21:23.982Z,22.75
2023-05-19T02:22:24.004Z,22.72
2023-05-19T02:23:24.120Z,22.74
2023-05-19T02:24:24.059Z,22.67
2023-05-19T02:25:24.404Z,22.70
2023-05-19T02:27:24.164Z,22.67
2023-05-19T02:28:24.173Z,22.74
2023-05-19T02:29:24.187Z,22.72
2023-05-19T02:31:24.369Z,22.66
2023-05-19T02:32:24.523Z,22.70
2023-05-19T02:33:24.327Z,22.72
2023-05-19T02:34:24.333Z,22.64
2023-05-19T02:35:24.362Z,22.70
2023-05-19T02:37:24.423Z,22.64
2023-05-19T02:38:24.749Z,22.57
2023-05-19T02:39:24.470Z,22.56
2023-05-19T02:40:24.507Z,22.64
2023-05-19T02:41:24.531Z,22.57
2023-05-19T02:42:24.684Z,22.64
2023-05-19T02:43:24.605Z,22.56
2023-05-19T02:44:24.915Z,22.66
2023-05-19T02:46:24.700Z,22.63
2023-05-19T02:47:24.709Z,22.61
2023-05-19T02:48:24.760Z,22.64
2023-05-19T02:51:25.113Z,22.63
2023-05-19T02:52:24.832Z,22.59
2023-05-19T02:53:24.868Z,22.63
2023-05-19T02:54:24.901Z,22.63
2023-05-19T02:55:24.923Z,22.63
2023-05-19T02:56:24.948Z,22.59
2023-05-19T02:57:24.987Z,22.60
2023-05-19T02:58:25.333Z,22.66
2023-05-19T02:59:25.793Z,22.51
2023-05-19T03:00:25.063Z,22.61
2023-05-19T03:01:25.117Z,22.54
2023-05-19T03:02:25.201Z,22.63
2023-05-19T03:03:25.227Z,22.57
2023-05-19T03:04:25.182Z,22.59
2023-05-19T03:05:25.502Z,22.60
2023-05-19T03:06:25.229Z,22.54
2023-05-19T03:08:25.298Z,22.46
2023-05-19T03:09:25.335Z,22.52
2023-05-19T03:10:25.356Z,22.60
2023-05-19T03:12:25.503Z,22.48
2023-05-19T03:13:25.769Z,22.48
2023-05-19T03:14:25.464Z,22.51
2023-05-19T03:15:25.502Z,22.48
2023-05-19T03:16:25.531Z,22.48
2023-05-19T03:17:25.660Z,22.56
2023-05-19T03:18:25.600Z,22.49
2023-05-19T03:19:25.662Z,22.49
2023-05-19T03:21:25.653Z,22.51
2023-05-19T03:24:25.788Z,22.54
2023-05-19T03:25:25.776Z,22.46
2023-05-19T03:26:26.096Z,22.51
2023-05-19T03:27:25.844Z,22.54
2023-05-19T03:28:25.868Z,22.45
2023-05-19T03:29:25.882Z,22.52
2023-05-19T03:30:25.912Z,22.48
2023-05-19T03:31:26.065Z,22.48
2023-05-19T03:32:26.027Z,22.48
2023-05-19T03:33:26.478Z,22.45
2023-05-19T03:34:26.024Z,22.41
2023-05-19T03:36:26.075Z,22.41
2023-05-19T03:37:26.108Z,22.44
2023-05-19T03:38:26.137Z,22.44
2023-05-19T03:39:26.163Z,22.48
2023-05-19T03:40:26.210Z,22.48
2023-05-19T03:41:26.226Z,22.44
2023-05-19T03:42:26.241Z,22.54
2023-05-19T03:44:26.419Z,22.46
2023-05-19T03:45:26.334Z,22.48
2023-05-19T03:46:26.420Z,22.51
2023-05-19T03:47:26.475Z,22.44
2023-05-19T03:48:26.434Z,22.52
2023-05-19T03:49:26.446Z,22.48
2023-05-19T03:50:26.471Z,22.46
2023-05-19T03:51:26.496Z,22.44
2023-05-19T03:52:26.823Z,22.46
2023-05-19T03:53:26.563Z,22.45
2023-05-19T03:54:26.579Z,22.49
2023-05-19T03:55:26.612Z,22.41
2023-05-19T03:56:26.631Z,22.49
2023-05-19T03:57:26.662Z,22.51
2023-05-19T03:58:27.005Z,22.42
2023-05-19T03:59:26.723Z,22.39
2023-05-19T04:00:26.847Z,22.46
2023-05-19T04:01:26.832Z,22.36
2023-05-19T04:02:26.885Z,22.42
2023-05-19T04:03:26.891Z,22.39
2023-05-19T04:04:27.168Z,22.39
2023-05-19T04:05:26.893Z,22.38
2023-05-19T04:06:26.924Z,22.41
2023-05-19T04:07:26.943Z,22.38
2023-05-19T04:08:27.072Z,22.36
2023-05-19T04:09:26.995Z,22.38
2023-05-19T04:10:27.023Z,22.36
2023-05-19T04:11:27.357Z,22.38
2023-05-19T04:12:27.088Z,22.42
2023-05-19T04:13:27.118Z,22.38
2023-05-19T04:14:27.139Z,22.41
2023-05-19T04:15:27.182Z,22.39
2023-05-19T04:16:27.356Z,22.36
2023-05-19T04:18:29.068Z,22.44
2023-05-19T04:19:27.391Z,22.41
2023-05-19T04:20:27.307Z,22.38
2023-05-19T04:21:27.642Z,22.33
2023-05-19T04:22:27.357Z,22.36
2023-05-19T04:24:27.497Z,22.48
2023-05-19T04:25:28.226Z,22.41
2023-05-19T04:26:27.541Z,22.41
2023-05-19T04:27:27.511Z,22.38
2023-05-19T04:28:27.532Z,22.45
2023-05-19T04:29:27.563Z,22.41
2023-05-19T04:31:27.636Z,22.42
2023-05-19T04:32:27.967Z,22.39
2023-05-19T04:33:27.720Z,22.36
2023-05-19T04:34:27.694Z,22.39
2023-05-19T04:35:27.741Z,22.39
2023-05-19T04:36:27.856Z,22.44
2023-05-19T04:37:27.782Z,22.38
2023-05-19T04:38:27.804Z,22.39
2023-05-19T04:40:28.128Z,22.38
2023-05-19T04:41:27.900Z,22.41
2023-05-19T04:42:27.919Z,22.39
2023-05-19T04:43:27.961Z,22.42
2023-05-19T04:44:27.971Z,22.42
2023-05-19T04:46:28.370Z,22.36
2023-05-19T04:47:28.296Z,22.44
2023-05-19T04:48:28.093Z,22.35
2023-05-19T04:49:28.128Z,22.38
2023-05-19T04:50:28.140Z,22.46
2023-05-19T04:51:29.816Z,22.42
2023-05-19T04:52:28.214Z,22.42
2023-05-19T04:53:28.567Z,22.49
2023-05-19T04:54:28.257Z,22.42
2023-05-19T04:55:28.281Z,22.46
2023-05-19T04:56:28.314Z,22.46
2023-05-19T04:58:28.366Z,22.38
2023-05-19T04:59:28.400Z,22.51
2023-05-19T05:01:28.494Z,22.48
2023-05-19T05:02:28.507Z,22.52
2023-05-19T05:03:28.600Z,22.44
2023-05-19T05:04:28.539Z,22.49
2023-05-19T05:05:28.573Z,22.51
2023-05-19T05:06:28.613Z,22.41
2023-05-19T05:07:31.592Z,22.54
2023-05-19T05:08:28.638Z,22.51
2023-05-19T05:09:28.665Z,22.48
2023-05-19T05:10:28.701Z,22.48
2023-05-19T05:11:28.719Z,22.38
2023-05-19T05:12:28.749Z,22.49
2023-05-19T05:13:28.776Z,22.52
2023-05-19T05:15:28.848Z,22.44
2023-05-19T05:16:28.960Z,22.46
2023-05-19T05:17:28.961Z,22.42
2023-05-19T05:18:28.914Z,22.49
2023-05-19T05:19:29.021Z,22.49
2023-05-19T05:20:29.287Z,22.51
2023-05-19T05:21:28.997Z,22.51
2023-05-19T05:22:29.064Z,22.51
2023-05-19T05:23:29.082Z,22.51
2023-05-19T05:24:29.086Z,22.51
2023-05-19T05:25:29.133Z,22.48
2023-05-19T05:26:29.437Z,22.54
2023-05-19T05:27:29.183Z,22.51
2023-05-19T05:28:29.192Z,22.48
2023-05-19T05:29:29.322Z,22.52
2023-05-19T05:30:29.249Z,22.48
2023-05-19T05:33:29.659Z,22.51
2023-05-19T05:34:29.356Z,22.57
2023-05-19T05:36:29.419Z,22.54
2023-05-19T05:37:29.447Z,22.60
2023-05-19T05:38:29.480Z,22.57
2023-05-19T05:39:29.929Z,22.59
2023-05-19T05:41:29.557Z,22.61
2023-05-19T05:42:29.885Z,22.57
2023-05-19T05:44:29.642Z,22.63
2023-05-19T05:45:30.053Z,22.66
2023-05-19T05:46:29.807Z,22.63
2023-05-19T05:47:29.786Z,22.60
2023-05-19T05:48:29.766Z,22.59
2023-05-19T05:49:29.791Z,22.59
2023-05-19T05:50:29.814Z,22.64
2023-05-19T05:51:29.834Z,22.56
2023-05-19T05:52:30.121Z,22.64
2023-05-19T05:53:29.894Z,22.56
2023-05-19T05:54:29.931Z,22.63
2023-05-19T05:55:30.205Z,22.67
2023-05-19T05:56:29.982Z,22.61
2023-05-19T05:57:30.003Z,22.66
2023-05-19T05:59:30.362Z,22.72
2023-05-19T06:00:30.244Z,22.67
2023-05-19T06:01:30.118Z,22.72
2023-05-19T06:02:30.248Z,22.66
2023-05-19T06:03:30.225Z,22.67
2023-05-19T06:06:30.573Z,22.75
2023-05-19T06:07:30.306Z,22.70
2023-05-19T06:08:30.328Z,22.70
2023-05-19T06:09:30.422Z,22.75
2023-05-19T06:10:30.564Z,22.76
2023-05-19T06:11:30.480Z,22.72
2023-05-19T06:12:30.441Z,22.74
2023-05-19T06:13:30.755Z,22.72
2023-05-19T06:16:30.575Z,22.75
2023-05-19T06:17:30.723Z,22.75
2023-05-19T06:18:30.609Z,22.72
2023-05-19T06:19:30.759Z,22.70
2023-05-19T06:20:31.196Z,22.79
2023-05-19T06:21:30.683Z,22.84
2023-05-19T06:22:30.716Z,22.84
2023-05-19T06:23:30.745Z,22.84
2023-05-19T06:24:30.777Z,22.86
2023-05-19T06:25:30.996Z,22.85
2023-05-19T06:26:30.819Z,22.86
2023-05-19T06:27:33.246Z,22.81
2023-05-19T06:28:30.885Z,22.82
2023-05-19T06:29:31.015Z,22.85
2023-05-19T06:31:30.990Z,22.81
2023-05-19T06:32:31.016Z,22.86
2023-05-19T06:33:31.040Z,22.91
2023-05-19T06:34:31.345Z,22.89
2023-05-19T06:35:31.073Z,22.89
2023-05-19T06:36:31.106Z,22.93
2023-05-19T06:37:31.130Z,22.96
2023-05-19T06:38:31.254Z,22.96
2023-05-19T06:39:31.188Z,22.97
2023-05-19T06:40:31.454Z,22.99
2023-05-19T06:41:31.547Z,23.00
2023-05-19T06:42:31.273Z,22.99
2023-05-19T06:43:31.375Z,22.99
2023-05-19T06:44:31.334Z,22.96
2023-05-19T06:46:31.420Z,22.99
2023-05-19T06:47:31.446Z,22.99
2023-05-19T06:48:31.736Z,23.06
2023-05-19T06:51:31.685Z,23.01
2023-05-19T06:52:31.576Z,23.00
2023-05-19T06:53:31.592Z,22.99
2023-05-19T06:54:31.615Z,23.07
2023-05-19T06:55:31.962Z,23.04
2023-05-19T06:56:31.673Z,23.06
2023-05-19T06:57:31.707Z,23.04
2023-05-19T06:58:31.754Z,23.09
2023-05-19T07:00:31.993Z,23.14
2023-05-19T07:01:31.856Z,23.03
2023-05-19T07:03:31.898Z,23.09
2023-05-19T07:04:31.891Z,23.07
2023-05-19T07:05:31.931Z,23.16
2023-05-19T07:06:31.954Z,23.06
2023-05-19T07:07:31.977Z,23.06
2023-05-19T07:08:32.036Z,23.15
2023-05-19T07:10:32.513Z,23.09
2023-05-19T07:11:32.092Z,23.23
2023-05-19T07:12:32.130Z,23.18
2023-05-19T07:13:32.162Z,23.15
2023-05-19T07:14:32.176Z,23.18
2023-05-19T07:15:32.211Z,23.16
2023-05-19T07:17:32.426Z,23.18
2023-05-19T07:18:32.292Z,23.16
2023-05-19T07:19:32.365Z,23.21
2023-05-19T07:20:32.617Z,23.26
2023-05-19T07:21:32.374Z,23.14
2023-05-19T07:22:32.414Z,23.26
2023-05-19T07:24:32.770Z,23.23
2023-05-19T07:25:32.483Z,23.26
2023-05-19T07:26:32.626Z,23.26
2023-05-19T07:27:32.562Z,23.26
2023-05-19T07:29:32.600Z,23.31
2023-05-19T07:30:32.819Z,23.29
2023-05-19T07:31:32.942Z,23.23
2023-05-19T07:32:32.715Z,23.32
2023-05-19T07:33:32.794Z,23.35
2023-05-19T07:34:32.747Z,23.37
2023-05-19T07:37:33.130Z,23.26
2023-05-19T07:38:32.937Z,23.26
2023-05-19T07:39:32.911Z,23.37
2023-05-19T07:40:33.055Z,23.38
2023-05-19T07:41:34.270Z,23.29
2023-05-19T07:42:32.966Z,23.35
2023-05-19T07:43:33.297Z,23.35
2023-05-19T07:44:33.031Z,23.35
2023-05-19T07:45:33.146Z,23.34
2023-05-19T07:46:33.183Z,23.32
2023-05-19T07:47:33.146Z,23.34
2023-05-19T07:48:33.141Z,23.38
2023-05-19T07:49:33.548Z,23.39
2023-05-19T07:50:33.360Z,23.32
2023-05-19T07:51:33.228Z,23.39
2023-05-19T07:52:33.251Z,23.42
2023-05-19T07:53:33.281Z,23.42
2023-05-19T07:54:33.313Z,23.39
2023-05-19T07:55:33.342Z,23.42
2023-05-19T07:56:33.667Z,23.35
2023-05-19T07:57:33.396Z,23.37
2023-05-19T07:58:33.427Z,23.41
2023-05-19T07:59:33.457Z,23.45
2023-05-19T08:00:33.710Z,23.45
2023-05-19T08:02:33.922Z,23.47
2023-05-19T08:03:34.110Z,23.44
2023-05-19T08:04:33.622Z,23.52
2023-05-19T08:05:33.678Z,23.47
2023-05-19T08:07:33.678Z,23.44
2023-05-19T08:08:33.715Z,23.49
2023-05-19T08:09:34.047Z,23.57
2023-05-19T08:10:34.164Z,23.56
2023-05-19T08:11:33.794Z,23.49
2023-05-19T08:12:33.909Z,23.52
2023-05-19T08:13:33.914Z,23.56
2023-05-19T08:14:33.878Z,23.50
2023-05-19T08:15:33.937Z,23.59
2023-05-19T08:16:34.237Z,23.53
2023-05-19T08:18:34.001Z,23.62
2023-05-19T08:19:34.028Z,23.53
2023-05-19T08:20:34.398Z,23.62
2023-05-19T08:21:34.112Z,23.53
2023-05-19T08:22:34.164Z,23.63
2023-05-19T08:23:34.453Z,23.60
2023-05-19T08:25:34.199Z,23.59
2023-05-19T08:26:36.296Z,23.62
2023-05-19T08:27:34.264Z,23.67
2023-05-19T08:28:34.298Z,23.63
2023-05-19T08:29:34.313Z,23.63
2023-05-19T08:30:34.880Z,23.62
2023-05-19T08:31:34.410Z,23.62
2023-05-19T08:32:34.438Z,23.60
2023-05-19T08:33:34.434Z,23.62
2023-05-19T08:34:34.463Z,23.64
2023-05-19T08:35:34.504Z,23.69
2023-05-19T08:36:34.516Z,23.64
2023-05-19T08:37:34.812Z,23.64
2023-05-19T08:38:34.596Z,23.72
2023-05-19T08:39:34.603Z,23.64
2023-05-19T08:40:34.973Z,23.62
2023-05-19T08:41:34.658Z,23.68
2023-05-19T08:42:34.684Z,23.67
2023-05-19T08:43:34.742Z,23.69
2023-05-19T08:44:34.744Z,23.68
2023-05-19T08:45:34.963Z,23.69
2023-05-19T08:46:34.841Z,23.77
2023-05-19T08:47:34.885Z,23.77
2023-05-19T08:48:34.867Z,23.78
2023-05-19T08:49:34.944Z,23.69
2023-05-19T08:50:35.333Z,23.74
2023-05-19T08:51:34.954Z,23.69
2023-05-19T08:52:34.976Z,23.74
2023-05-19T08:53:35.018Z,23.74
2023-05-19T08:54:35.034Z,23.77
2023-05-19T08:56:35.500Z,23.82
2023-05-19T08:58:35.145Z,23.81
2023-05-19T09:00:35.507Z,23.81
2023-05-19T09:02:35.534Z,23.77
2023-05-19T09:03:35.390Z,23.77
2023-05-19T09:04:35.441Z,23.81
2023-05-19T09:05:35.702Z,23.78
2023-05-19T09:07:35.403Z,23.89
2023-05-19T09:08:35.797Z,23.79
2023-05-19T09:09:35.484Z,23.84
2023-05-19T09:10:35.494Z,23.90
2023-05-19T09:12:35.548Z,23.87
2023-05-19T09:13:35.577Z,23.90
2023-05-19T09:14:35.607Z,23.86
2023-05-19T09:16:36.010Z,23.87
2023-05-19T09:17:35.726Z,23.90
2023-05-19T09:18:35.725Z,23.92
2023-05-19T09:19:35.828Z,23.92
2023-05-19T09:20:35.783Z,23.90
2023-05-19T09:21:35.807Z,23.96
2023-05-19T09:22:35.861Z,23.92
2023-05-19T09:23:36.191Z,23.86
2023-05-19T09:24:35.907Z,23.90
2023-05-19T09:25:36.061Z,23.86
2023-05-19T09:26:35.960Z,23.94
2023-05-19T09:27:35.985Z,23.87
2023-05-19T09:28:36.017Z,23.94
2023-05-19T09:29:36.150Z,23.90
2023-05-19T09:30:36.378Z,23.93
2023-05-19T09:31:36.126Z,23.92
2023-05-19T09:32:36.146Z,23.92
2023-05-19T09:33:36.171Z,23.94
2023-05-19T09:34:36.196Z,23.93
2023-05-19T09:35:36.216Z,23.96
2023-05-19T09:36:36.247Z,23.94
2023-05-19T09:37:36.527Z,23.96
2023-05-19T09:38:36.300Z,23.97
2023-05-19T09:40:36.381Z,23.96
2023-05-19T09:41:36.482Z,23.99
2023-05-19T09:42:36.418Z,23.96
2023-05-19T09:43:36.554Z,23.96
2023-05-19T09:44:36.497Z,24.00
2023-05-19T09:46:36.703Z,23.99
2023-05-19T09:47:36.581Z,23.97
2023-05-19T09:48:36.909Z,24.02
2023-05-19T09:49:36.623Z,23.99
2023-05-19T09:50:36.955Z,24.00
2023-05-19T09:51:36.683Z,24.02
2023-05-19T09:52:36.730Z,24.05
2023-05-19T09:53:36.742Z,24.00
2023-05-19T09:54:36.772Z,24.00
2023-05-19T09:55:36.799Z,24.05
2023-05-19T09:56:36.836Z,24.04
2023-05-19T09:58:37.227Z,24.06
2023-05-19T10:00:36.948Z,24.09
2023-05-19T10:01:37.025Z,24.06
2023-05-19T10:02:37.014Z,24.11
2023-05-19T10:03:37.045Z,24.06
2023-05-19T10:04:37.131Z,24.08
2023-05-19T10:05:37.396Z,24.14
2023-05-19T10:06:37.121Z,24.09
2023-05-19T10:07:37.149Z,24.11
2023-05-19T10:08:37.179Z,24.11
2023-05-19T10:09:37.223Z,24.08
2023-05-19T10:10:37.236Z,24.18
2023-05-19T10:11:37.264Z,24.08
2023-05-19T10:12:37.602Z,24.24
2023-05-19T10:13:37.333Z,24.15
2023-05-19T10:14:37.380Z,24.15
2023-05-19T10:15:53.740Z,24.11
2023-05-19T10:16:37.426Z,24.16
2023-05-19T10:17:37.452Z,24.16
2023-05-19T10:18:39.118Z,24.09
2023-05-19T10:19:37.818Z,24.14
2023-05-19T10:20:37.545Z,24.16
2023-05-19T10:21:37.576Z,24.18
2023-05-19T10:22:37.601Z,24.19
2023-05-19T10:23:37.626Z,24.18
2023-05-19T10:24:37.664Z,24.19
2023-05-19T10:25:37.676Z,24.05
2023-05-19T10:26:38.010Z,24.18
2023-05-19T10:27:37.772Z,24.16
2023-05-19T10:28:37.768Z,24.15
2023-05-19T10:29:37.803Z,24.15
2023-05-19T10:31:38.013Z,24.27
2023-05-19T10:32:38.005Z,24.21
2023-05-19T10:33:38.165Z,24.21
2023-05-19T10:34:37.942Z,24.21
2023-05-19T10:35:38.294Z,24.16
2023-05-19T10:36:38.010Z,24.23
2023-05-19T10:37:38.029Z,24.27
2023-05-19T10:38:38.060Z,24.36
2023-05-19T10:39:38.130Z,24.26
2023-05-19T10:40:38.391Z,24.29
2023-05-19T10:41:38.155Z,24.27
2023-05-19T10:42:38.174Z,24.21
2023-05-19T10:43:38.213Z,24.27
2023-05-19T10:44:38.236Z,24.30
2023-05-19T10:45:38.287Z,24.29
2023-05-19T10:46:38.327Z,24.31
2023-05-19T10:47:38.643Z,24.27
2023-05-19T10:49:38.393Z,24.30
2023-05-19T10:50:38.420Z,24.31
2023-05-19T10:51:38.449Z,24.31
2023-05-19T10:52:38.474Z,24.36
2023-05-19T10:53:38.505Z,24.34
2023-05-19T10:54:38.836Z,24.36
2023-05-19T10:55:38.569Z,24.34
2023-05-19T10:56:38.600Z,24.37
2023-05-19T10:57:38.629Z,24.44
2023-05-19T10:58:38.663Z,24.37
2023-05-19T10:59:38.701Z,24.45
2023-05-19T11:00:39.018Z,24.48
2023-05-19T11:01:38.812Z,24.42
2023-05-19T11:02:38.827Z,24.39
2023-05-19T11:03:38.934Z,24.41
2023-05-19T11:04:38.838Z,24.48
2023-05-19T11:05:38.857Z,24.41
2023-05-19T11:06:39.214Z,24.44
2023-05-19T11:07:38.924Z,24.49
2023-05-19T11:09:40.578Z,24.44
2023-05-19T11:10:39.028Z,24.45
2023-05-19T11:11:39.042Z,24.46
2023-05-19T11:12:39.345Z,24.44
2023-05-19T11:13:39.102Z,24.52
2023-05-19T11:14:39.136Z,24.51
2023-05-19T11:15:39.174Z,24.48
2023-05-19T11:16:39.246Z,24.51
2023-05-19T11:17:39.268Z,24.49
2023-05-19T11:18:39.291Z,24.46
2023-05-19T11:19:39.925Z,24.44
2023-05-19T11:20:39.479Z,24.46
2023-05-19T11:21:39.347Z,24.48
2023-05-19T11:22:39.431Z,24.49
2023-05-19T11:23:39.499Z,24.60
2023-05-19T11:24:39.423Z,24.61
2023-05-19T11:25:39.458Z,24.56
2023-05-19T11:26:39.784Z,24.61
2023-05-19T11:27:39.513Z,24.49
2023-05-19T11:28:39.648Z,24.52
2023-05-19T11:29:39.576Z,24.55
2023-05-19T11:30:39.606Z,24.59
2023-05-19T11:31:39.655Z,24.59
2023-05-19T11:32:39.881Z,24.63
2023-05-19T11:33:39.991Z,24.59
2023-05-19T11:34:39.778Z,24.60
2023-05-19T11:35:40.077Z,24.59
2023-05-19T11:36:39.789Z,24.60
2023-05-19T11:37:39.816Z,24.63
2023-05-19T11:38:39.836Z,24.60
2023-05-19T11:39:40.005Z,24.61
2023-05-19T11:40:40.520Z,24.63
2023-05-19T11:41:40.233Z,24.63
2023-05-19T11:42:40.486Z,24.60
2023-05-19T11:43:40.469Z,24.61
2023-05-19T11:44:40.442Z,24.59
2023-05-19T11:45:40.229Z,24.63
2023-05-19T11:46:40.151Z,24.60
2023-05-19T11:47:57.150Z,24.79
2023-05-19T11:48:40.210Z,24.67
2023-05-19T11:49:40.178Z,24.63
2023-05-19T11:51:40.380Z,24.71
2023-05-19T11:52:40.262Z,24.77
2023-05-19T11:54:40.326Z,24.75
2023-05-19T11:55:40.358Z,24.68
2023-05-19T11:56:40.380Z,24.75
2023-05-19T11:57:41.655Z,24.71
2023-05-19T11:58:40.443Z,24.77
2023-05-19T11:59:40.468Z,24.80
2023-05-19T12:00:40.774Z,24.77
2023-05-19T12:01:40.535Z,24.71
2023-05-19T12:02:40.587Z,24.77
2023-05-19T12:03:40.702Z,24.82
2023-05-19T12:04:40.697Z,24.74
2023-05-19T12:05:43.397Z,24.82
2023-05-19T12:07:41.028Z,24.84
2023-05-19T12:08:40.742Z,24.89
2023-05-19T12:09:40.762Z,24.77
2023-05-19T12:10:40.866Z,24.83
2023-05-19T12:11:40.823Z,24.86
2023-05-19T12:12:40.861Z,24.87
2023-05-19T12:13:40.886Z,24.93
2023-05-19T12:14:41.222Z,24.92
2023-05-19T12:15:40.943Z,24.89
2023-05-19T12:16:41.001Z,24.98
2023-05-19T12:17:41.037Z,24.93
2023-05-19T12:18:41.063Z,24.98
2023-05-19T12:19:41.073Z,24.99
2023-05-19T12:20:41.402Z,24.93
2023-05-19T12:21:41.124Z,24.98
2023-05-19T12:22:41.161Z,25.01
2023-05-19T12:23:41.218Z,25.05
2023-05-19T12:24:41.220Z,24.99
2023-05-19T12:25:41.247Z,24.99
2023-05-19T12:26:41.586Z,24.99
2023-05-19T12:27:41.307Z,25.01
2023-05-19T12:28:41.376Z,25.04
2023-05-19T12:29:41.366Z,25.08
2023-05-19T12:30:41.437Z,25.05
2023-05-19T12:31:41.464Z,24.98
2023-05-19T12:32:41.788Z,25.02
2023-05-19T12:33:41.490Z,24.99
2023-05-19T12:34:41.517Z,25.04
2023-05-19T12:35:41.544Z,25.01
2023-05-19T12:36:41.582Z,25.04
2023-05-19T12:37:41.616Z,25.02
2023-05-19T12:38:41.643Z,25.01
2023-05-19T12:39:42.008Z,25.09
2023-05-19T12:40:41.702Z,25.01
2023-05-19T12:42:41.763Z,24.99
2023-05-19T12:43:41.792Z,25.11
2023-05-19T12:44:41.826Z,25.08
2023-05-19T12:46:41.898Z,25.11
2023-05-19T12:47:42.270Z,25.16
2023-05-19T12:48:41.950Z,25.11
2023-05-19T12:49:41.973Z,25.16
2023-05-19T12:50:42.009Z,25.14
2023-05-19T12:52:42.063Z,25.16
2023-05-19T12:53:42.397Z,25.14
2023-05-19T12:55:42.295Z,25.12
2023-05-19T12:56:42.192Z,25.09
2023-05-19T12:57:42.234Z,25.11
2023-05-19T12:58:42.238Z,25.20
2023-05-19T12:59:42.281Z,25.23
2023-05-19T13:00:42.781Z,25.23
2023-05-19T13:01:42.364Z,25.29
2023-05-19T13:02:42.417Z,25.31
2023-05-19T13:03:42.542Z,25.26
2023-05-19T13:04:42.431Z,25.23
2023-05-19T13:05:42.460Z,25.35
2023-05-19T13:06:42.511Z,25.29
2023-05-19T13:07:42.813Z,25.31
2023-05-19T13:08:42.550Z,25.34
2023-05-19T13:09:42.577Z,25.30
2023-05-19T13:10:42.603Z,25.45
2023-05-19T13:11:42.671Z,25.44
2023-05-19T13:12:42.671Z,25.48
2023-05-19T13:13:42.697Z,25.49
2023-05-19T13:14:43.042Z,25.44
2023-05-19T13:15:42.769Z,25.30
2023-05-19T13:16:42.845Z,25.36
2023-05-19T13:17:42.868Z,25.41
2023-05-19T13:18:42.927Z,25.46
2023-05-19T13:19:42.946Z,25.41
2023-05-19T13:20:42.925Z,25.45
2023-05-19T13:21:43.199Z,25.39
2023-05-19T13:22:42.996Z,25.49
2023-05-19T13:23:43.000Z,25.42
2023-05-19T13:24:43.028Z,25.51
2023-05-19T13:25:43.068Z,25.46
2023-05-19T13:26:43.101Z,25.48
2023-05-19T13:27:43.182Z,25.51
2023-05-19T13:28:43.410Z,25.46
2023-05-19T13:29:43.192Z,25.56
2023-05-19T13:31:43.251Z,25.56
2023-05-19T13:32:43.349Z,25.51
2023-05-19T13:33:43.316Z,25.53
2023-05-19T13:34:43.349Z,25.61
2023-05-19T13:35:43.669Z,25.57
2023-05-19T13:36:43.433Z,25.60
2023-05-19T13:37:43.564Z,25.63
2023-05-19T13:38:43.459Z,25.64
2023-05-19T13:39:43.488Z,25.66
2023-05-19T13:40:43.522Z,25.66
2023-05-19T13:41:43.554Z,25.71
2023-05-19T13:42:43.898Z,25.69
2023-05-19T13:43:43.744Z,25.75
2023-05-19T13:44:43.645Z,25.72
2023-05-19T13:45:43.675Z,25.64
2023-05-19T13:46:46.111Z,25.64
2023-05-19T13:47:43.793Z,25.64
2023-05-19T13:48:43.771Z,25.81
2023-05-19T13:49:44.099Z,25.83
2023-05-19T13:50:43.826Z,25.76
2023-05-19T13:51:43.856Z,25.75
2023-05-19T13:52:43.899Z,25.90
2023-05-19T13:53:43.919Z,25.78
2023-05-19T13:54:43.958Z,25.82
2023-05-19T13:55:43.982Z,25.78
2023-05-19T13:56:44.011Z,25.82
2023-05-19T13:57:44.330Z,25.90
2023-05-19T13:58:44.069Z,25.90
2023-05-19T14:00:00.238Z,25.93
2023-05-19T14:00:44.131Z,25.97
2023-05-19T14:01:44.206Z,25.98
2023-05-19T14:02:44.586Z,25.93
2023-05-19T14:03:44.265Z,25.89
2023-05-19T14:04:44.286Z,25.96
2023-05-19T14:05:44.295Z,26.04
2023-05-19T14:06:44.315Z,26.03
2023-05-19T14:07:44.366Z,26.03
2023-05-19T14:08:44.702Z,26.00
2023-05-19T14:09:44.411Z,26.03
2023-05-19T14:10:44.441Z,25.97
2023-05-19T14:11:44.470Z,26.04
2023-05-19T14:13:12.453Z,26.03
2023-05-19T14:14:44.560Z,26.06
2023-05-19T14:15:44.924Z,25.98
2023-05-19T14:16:44.744Z,26.12
2023-05-19T14:17:44.738Z,26.16
2023-05-19T14:18:44.718Z,26.09
2023-05-19T14:19:44.721Z,26.24
2023-05-19T14:20:44.744Z,26.21